Time;durP1;ratioP1;P1;durP2;ratioP2;P2;SDS_P1;SDS_P2;PMS_P1;PMS_P2;Temp;Humidity;BMP_temperature;BMP_pressure;BME280_temperature;BME280_humidity;BME280_pressure;Samples;Min_cycle;Max_cycle;Signal;HPM_P1;HPM_P2
2021/05/03 00:01:54;;;;;;;14.17;10.73;;;;;;;14.34;85.06;99360.45;1831653;77;21667;-74
2021/05/03 00:04:22;;;;;;;14.47;10.83;;;;;;;14.31;85.37;99362.68;1784730;78;22122;-74
2021/05/03 00:06:53;;;;;;;14.38;10.82;;;;;;;14.31;85.37;99362.68;1759318;80;21563;-74
2021/05/03 00:09:21;;;;;;;17.60;10.73;;;;;;;14.33;85.15;99364.25;1818057;76;21167;-74
2021/05/03 00:11:50;;;;;;;14.17;10.60;;;;;;;14.28;85.24;99359.27;1835130;76;21662;-73
2021/05/03 00:14:18;;;;;;;16.13;10.60;;;;;;;14.28;84.98;99360.61;1841567;77;22146;-74
2021/05/03 00:16:46;;;;;;;13.20;10.60;;;;;;;14.22;85.23;99359.16;1842720;76;21815;-72
2021/05/03 00:19:14;;;;;;;14.33;11.23;;;;;;;14.16;85.69;99359.61;1843683;76;21522;-73
2021/05/03 00:21:43;;;;;;;15.50;11.07;;;;;;;14.16;85.69;99359.61;1833317;76;21513;-73
2021/05/03 00:24:12;;;;;;;16.10;11.77;;;;;;;14.10;85.90;99357.61;1814412;77;21629;-73
2021/05/03 00:26:40;;;;;;;16.23;11.73;;;;;;;13.99;87.01;99367.04;1836679;76;21607;-73
2021/05/03 00:29:08;;;;;;;18.40;11.90;;;;;;;13.99;87.01;99367.04;1839070;76;21484;-73
2021/05/03 00:31:36;;;;;;;16.03;13.20;;;;;;;13.98;87.29;99369.46;1834545;76;21463;-73
2021/05/03 00:34:06;;;;;;;19.13;12.87;;;;;;;13.92;87.79;99374.19;1845008;76;21873;-73
2021/05/03 00:36:34;;;;;;;17.77;13.03;;;;;;;13.92;87.79;99374.19;1829094;77;21662;-73
2021/05/03 00:39:04;;;;;;;17.73;13.33;;;;;;;13.90;88.41;99367.54;1767780;79;21575;-73
2021/05/03 00:41:31;;;;;;;16.87;12.63;;;;;;;13.87;88.73;99362.78;1836038;76;21998;-73
2021/05/03 00:44:00;;;;;;;18.43;13.00;;;;;;;13.87;89.05;99371.62;1838532;77;21665;-75
2021/05/03 00:46:28;;;;;;;17.00;12.87;;;;;;;13.87;89.24;99374.31;1841380;76;21884;-74
2021/05/03 00:48:56;;;;;;;19.27;13.67;;;;;;;13.86;89.41;99375.42;1841121;77;22027;-74
2021/05/03 00:51:24;;;;;;;18.07;11.67;;;;;;;13.86;90.01;99380.79;1838459;76;21484;-72
2021/05/03 00:53:52;;;;;;;16.80;13.10;;;;;;;13.86;90.01;99380.79;1815991;77;21678;-72
2021/05/03 00:56:21;;;;;;;16.17;12.40;;;;;;;13.86;89.82;99383.47;1821520;76;21658;-73
2021/05/03 00:58:51;;;;;;;16.37;12.97;;;;;;;13.87;89.97;99395.00;1813849;77;21538;-73
2021/05/03 01:01:24;;;;;;;16.20;12.18;;;;;;;13.87;89.98;99395.78;1828165;76;21569;-72
2021/05/03 01:03:52;;;;;;;17.95;13.30;;;;;;;13.83;90.13;99401.53;1802489;78;21195;-73
2021/05/03 01:06:20;;;;;;;15.97;12.80;;;;;;;13.81;90.17;99401.81;1835805;76;21109;-73
2021/05/03 01:08:48;;;;;;;20.20;13.60;;;;;;;13.81;90.49;99411.77;1840393;76;21501;-73
2021/05/03 01:11:16;;;;;;;17.73;13.43;;;;;;;13.81;90.49;99411.77;1838227;76;21620;-73
2021/05/03 01:13:44;;;;;;;16.43;12.63;;;;;;;13.80;90.10;99412.31;1835897;76;21717;-73
2021/05/03 01:16:12;;;;;;;13.07;10.67;;;;;;;13.76;89.96;99405.98;1836806;76;21872;-73
2021/05/03 01:18:40;;;;;;;15.07;11.73;;;;;;;13.76;89.96;99405.98;1839589;76;21978;-72
2021/05/03 01:21:08;;;;;;;13.73;11.17;;;;;;;13.76;89.90;99415.93;1795882;78;21462;-73
2021/05/03 01:23:36;;;;;;;17.77;13.20;;;;;;;13.63;90.02;99397.45;1777234;79;22031;-73
2021/05/03 01:26:04;;;;;;;18.10;11.90;;;;;;;13.63;90.02;99397.45;1783802;78;21612;-72
2021/05/03 01:28:32;;;;;;;17.53;12.23;;;;;;;13.60;89.90;99407.45;1782674;80;22031;-73
2021/05/03 01:31:00;;;;;;;18.47;13.43;;;;;;;13.57;90.01;99408.06;1781665;79;21624;-73
2021/05/03 01:33:29;;;;;;;14.50;11.40;;;;;;;13.51;90.05;99407.37;1774201;80;21920;-73
2021/05/03 01:35:57;;;;;;;15.27;11.90;;;;;;;13.49;89.99;99408.77;1772741;80;21920;-73
2021/05/03 01:38:25;;;;;;;19.67;11.73;;;;;;;13.45;89.96;99405.12;1781742;79;21418;-72
2021/05/03 01:40:53;;;;;;;14.03;11.20;;;;;;;13.41;89.92;99402.80;1781827;79;21588;-72
2021/05/03 01:43:25;;;;;;;15.07;11.00;;;;;;;13.37;89.86;99406.09;1779966;79;21846;-73
2021/05/03 01:45:56;;;;;;;11.95;10.35;;;;;;;13.33;89.75;99407.02;1783926;79;21446;-72
2021/05/03 01:48:26;;;;;;;12.35;8.75;;;;;;;13.31;89.61;99414.00;1782812;79;21140;-73
2021/05/03 01:50:55;;;;;;;12.83;10.10;;;;;;;13.29;89.45;99416.73;1780482;79;21159;-72
2021/05/03 01:53:25;;;;;;;10.83;8.53;;;;;;;13.18;88.45;99438.94;1771736;79;21454;-73
2021/05/03 01:55:56;;;;;;;11.83;8.23;;;;;;;13.18;88.45;99438.94;1770411;79;21631;-73
2021/05/03 01:58:26;;;;;;;14.18;8.65;;;;;;;13.14;87.91;99428.58;1773236;79;21540;-73
2021/05/03 02:00:56;;;;;;;9.73;7.23;;;;;;;13.13;87.43;99428.34;1774440;79;21215;-74
2021/05/03 02:03:26;;;;;;;7.87;6.27;;;;;;;13.11;86.48;99432.64;1775075;79;21414;-73
2021/05/03 02:05:55;;;;;;;9.98;5.85;;;;;;;13.08;84.91;99431.91;1777592;80;22619;-73
2021/05/03 02:08:23;;;;;;;7.40;4.90;;;;;;;13.07;83.43;99429.54;1777511;80;21159;-73
2021/05/03 02:10:52;;;;;;;9.00;4.73;;;;;;;13.08;82.40;99441.84;1780127;80;21543;-73
2021/05/03 02:13:22;;;;;;;5.67;3.73;;;;;;;13.06;81.43;99438.13;1757321;79;21471;-73
2021/05/03 02:15:51;;;;;;;5.40;3.97;;;;;;;13.03;78.75;99435.23;1757621;80;21475;-73
2021/05/03 02:18:19;;;;;;;5.20;3.43;;;;;;;13.03;77.61;99430.69;1790822;79;21477;-74
2021/05/03 02:20:46;;;;;;;7.07;3.57;;;;;;;13.00;76.59;99434.52;1842705;76;21533;-73
2021/05/03 02:23:14;;;;;;;5.30;3.20;;;;;;;12.95;75.61;99442.09;1839803;76;21396;-73
2021/05/03 02:25:42;;;;;;;4.70;3.10;;;;;;;12.89;75.05;99448.10;1832486;77;21384;-72
2021/05/03 02:28:11;;;;;;;4.77;2.80;;;;;;;12.83;72.89;99460.56;1837433;77;21278;-74
2021/05/03 02:30:39;;;;;;;4.27;2.90;;;;;;;12.81;72.00;99454.73;1842752;76;21407;-73
2021/05/03 02:33:08;;;;;;;4.37;2.83;;;;;;;12.76;71.05;99457.49;1837394;76;21402;-74
2021/05/03 02:35:37;;;;;;;5.00;2.50;;;;;;;12.71;69.21;99462.97;1831553;76;21194;-74
2021/05/03 02:38:08;;;;;;;4.80;2.30;;;;;;;12.68;68.71;99467.03;1845975;77;21351;-74
2021/05/03 02:40:38;;;;;;;4.87;2.50;;;;;;;12.64;68.32;99464.16;1810744;78;21323;-73
2021/05/03 02:43:06;;;;;;;4.40;2.70;;;;;;;12.57;67.53;99479.83;1769744;79;21443;-73
2021/05/03 02:45:36;;;;;;;4.33;2.63;;;;;;;12.53;67.62;99467.30;1772266;80;21556;-73
2021/05/03 02:48:05;;;;;;;5.20;2.47;;;;;;;12.48;67.75;99478.91;1772694;78;21475;-74
2021/05/03 02:50:33;;;;;;;5.97;2.63;;;;;;;12.46;68.10;99473.59;1783769;79;21229;-73
2021/05/03 02:53:01;;;;;;;4.03;2.30;;;;;;;12.42;68.54;99483.56;1765793;79;21494;-73
2021/05/03 02:55:29;;;;;;;3.50;2.13;;;;;;;12.40;68.72;99495.12;1775822;80;22307;-73
2021/05/03 02:57:57;;;;;;;6.90;2.70;;;;;;;12.38;69.15;99499.98;1769872;79;21320;-74
2021/05/03 03:00:32;;;;;;;5.00;2.87;;;;;;;12.34;69.33;99499.50;1772021;79;21758;-73
2021/05/03 03:03:01;;;;;;;5.13;3.07;;;;;;;12.28;69.36;99510.86;1799256;78;21463;-73
2021/05/03 03:05:30;;;;;;;5.47;2.80;;;;;;;12.23;69.40;99508.26;1828410;76;21826;-74
2021/05/03 03:08:01;;;;;;;4.23;3.00;;;;;;;12.20;69.89;99508.84;1843573;77;21681;-73
2021/05/03 03:10:30;;;;;;;3.70;2.50;;;;;;;12.17;69.94;99521.47;1842952;77;21460;-73
2021/05/03 03:13:00;;;;;;;4.93;3.00;;;;;;;12.12;70.32;99523.70;1840227;76;21281;-75
2021/05/03 03:18:10;;;;;;;4.50;2.80;;;;;;;12.12;70.60;99534.95;1794555;78;23120;-74
2021/05/03 03:20:39;;;;;;;5.03;3.00;;;;;;;12.04;70.60;99531.59;1783948;80;21069;-74
2021/05/03 03:23:07;;;;;;;3.50;2.30;;;;;;;11.97;70.11;99540.77;1797958;78;21697;-73
2021/05/03 03:25:35;;;;;;;5.97;2.70;;;;;;;11.92;70.26;99530.16;1808725;78;21840;-74
2021/05/03 03:28:03;;;;;;;5.27;2.80;;;;;;;11.89;70.61;99539.31;1774024;78;21320;-73
2021/05/03 03:30:31;;;;;;;3.90;2.60;;;;;;;11.83;70.29;99535.09;1794124;78;21836;-73
2021/05/03 03:32:59;;;;;;;3.70;2.40;;;;;;;11.72;69.54;99560.66;1785110;80;21404;-74
2021/05/03 03:35:28;;;;;;;4.23;2.70;;;;;;;11.62;68.79;99558.12;1773199;80;21299;-74
2021/05/03 03:37:56;;;;;;;3.50;2.30;;;;;;;11.54;68.66;99568.66;1778614;78;21391;-74
2021/05/03 03:40:24;;;;;;;5.70;2.53;;;;;;;11.47;68.96;99567.12;1784656;78;21262;-74
2021/05/03 03:42:52;;;;;;;4.20;2.23;;;;;;;11.41;68.91;99582.97;1817250;78;21412;-74
2021/05/03 03:45:20;;;;;;;3.53;2.27;;;;;;;11.34;68.29;99586.53;1782690;78;21365;-74
2021/05/03 03:47:48;;;;;;;4.00;2.30;;;;;;;11.23;67.76;99593.09;1785022;78;21863;-73
2021/05/03 03:50:16;;;;;;;4.27;2.30;;;;;;;11.13;67.64;99602.55;1775351;80;21403;-74
2021/05/03 03:52:44;;;;;;;5.40;2.10;;;;;;;11.10;68.02;99605.80;1807929;78;21399;-75
2021/05/03 03:55:12;;;;;;;4.23;2.40;;;;;;;11.02;68.40;99604.52;1788052;78;21345;-73
2021/05/03 03:57:40;;;;;;;5.27;2.40;;;;;;;11.00;68.87;99620.05;1807773;78;21502;-74
2021/05/03 04:00:09;;;;;;;4.93;2.80;;;;;;;10.96;68.94;99621.16;1776703;78;21351;-74
2021/05/03 04:02:37;;;;;;;3.20;2.40;;;;;;;10.91;69.04;99619.86;1790024;79;21815;-74
2021/05/03 04:05:21;;;;;;;4.20;2.70;;;;;;;10.87;69.14;99631.41;1778795;79;21467;-74
2021/05/03 04:21:24;;;;;;;3.63;2.70;;;;;;;10.73;67.75;99657.42;1786067;78;21441;-74
2021/05/03 04:24:08;;;;;;;4.73;2.90;;;;;;;10.63;67.02;99641.48;1812082;77;21419;-73
2021/05/03 04:26:28;;;;;;;4.80;2.77;;;;;;;10.50;67.17;99681.63;1810103;77;22341;-73
2021/05/03 04:28:57;;;;;;;3.73;2.60;;;;;;;10.38;67.11;99699.86;1806793;77;21400;-74
2021/05/03 04:31:24;;;;;;;4.70;2.73;;;;;;;10.26;66.01;99709.52;1822113;78;21944;-74
2021/05/03 04:33:53;;;;;;;3.87;2.07;;;;;;;10.16;66.32;99706.88;1812523;77;21384;-74
2021/05/03 04:36:21;;;;;;;4.03;2.27;;;;;;;10.07;66.55;99705.34;1809530;77;21366;-73
2021/05/03 04:38:50;;;;;;;3.70;2.07;;;;;;;10.08;66.64;99698.92;1801929;78;22166;-73
2021/05/03 04:41:18;;;;;;;3.37;1.90;;;;;;;10.15;66.61;99708.50;1806871;78;21491;-74
2021/05/03 04:43:46;;;;;;;3.80;2.30;;;;;;;10.17;65.73;99703.16;1809565;77;21418;-76
2021/05/03 04:46:16;;;;;;;5.27;1.97;;;;;;;10.20;65.36;99723.95;1808967;77;21642;-75
2021/05/03 04:48:44;;;;;;;3.90;1.80;;;;;;;10.21;65.58;99714.87;1808639;77;22244;-74
2021/05/03 04:51:12;;;;;;;3.00;1.80;;;;;;;10.27;65.23;99710.34;1817363;77;21644;-75
2021/05/03 04:53:40;;;;;;;2.57;1.60;;;;;;;10.26;64.47;99717.52;1775085;80;21923;-75
2021/05/03 04:56:08;;;;;;;3.00;1.70;;;;;;;10.25;64.23;99703.10;1788408;78;21424;-75
2021/05/03 04:58:36;;;;;;;3.12;1.77;;;;;;;10.29;64.41;99702.84;1804858;78;21375;-76
2021/05/03 05:01:06;;;;;;;3.67;1.70;;;;;;;10.33;64.45;99690.53;1785836;78;21175;-75
2021/05/03 05:03:34;;;;;;;2.70;1.70;;;;;;;10.39;64.12;99692.09;1781511;79;22344;-76
2021/05/03 05:06:02;;;;;;;2.98;1.57;;;;;;;10.44;64.11;99689.41;1785444;78;21578;-76
2021/05/03 05:08:31;;;;;;;2.67;1.40;;;;;;;10.53;63.86;99694.42;1790006;79;21155;-76
2021/05/03 05:10:59;;;;;;;3.90;1.40;;;;;;;10.62;63.85;99699.16;1777638;78;21731;-75
2021/05/03 05:13:27;;;;;;;2.07;1.40;;;;;;;10.68;63.70;99709.53;1796345;79;21279;-75
2021/05/03 05:15:58;;;;;;;2.27;1.40;;;;;;;10.73;62.38;99700.70;1762680;79;21447;-75
2021/05/03 05:18:26;;;;;;;1.97;1.43;;;;;;;10.75;62.27;99718.56;1785953;79;21203;-74
2021/05/03 05:20:53;;;;;;;2.70;1.70;;;;;;;10.75;62.09;99707.88;1782742;79;21409;-74
2021/05/03 05:23:22;;;;;;;2.57;1.40;;;;;;;10.74;61.94;99711.64;1788695;79;21412;-75
2021/05/03 05:25:51;;;;;;;1.97;1.30;;;;;;;10.72;62.02;99685.73;1787265;79;21431;-75
2021/05/03 05:28:23;;;;;;;2.85;1.35;;;;;;;10.72;62.11;99684.40;1787255;79;21457;-75
2021/05/03 05:30:58;;;;;;;2.87;1.40;;;;;;;10.75;61.94;99701.20;1772408;79;21169;-75
2021/05/03 05:33:26;;;;;;;1.57;1.10;;;;;;;10.76;61.90;99694.80;1786390;78;21482;-75
2021/05/03 05:35:54;;;;;;;4.00;1.30;;;;;;;10.79;61.39;99711.58;1789739;78;21354;-75
2021/05/03 05:38:22;;;;;;;2.03;1.20;;;;;;;10.81;60.59;99696.09;1786030;79;21943;-75
2021/05/03 05:40:49;;;;;;;2.07;1.20;;;;;;;10.82;60.83;99692.88;1779247;79;22166;-74
2021/05/03 05:43:17;;;;;;;3.77;1.13;;;;;;;10.84;60.01;99679.50;1797085;79;21348;-75
2021/05/03 05:45:46;;;;;;;2.63;1.20;;;;;;;10.88;59.90;99699.77;1779422;78;21493;-75
2021/05/03 05:48:13;;;;;;;1.30;0.90;;;;;;;10.87;59.74;99691.51;1784861;79;21981;-76
2021/05/03 05:50:43;;;;;;;1.90;1.10;;;;;;;10.88;59.45;99687.20;1785014;78;21400;-76
2021/05/03 05:53:11;;;;;;;2.40;1.27;;;;;;;10.89;59.51;99694.67;1774840;79;21301;-75
2021/05/03 05:55:40;;;;;;;1.47;1.00;;;;;;;10.94;59.42;99686.09;1794777;79;21390;-75
2021/05/03 05:58:09;;;;;;;2.27;1.00;;;;;;;10.98;59.10;99671.09;1782941;78;21224;-75
2021/05/03 06:00:37;;;;;;;1.93;0.90;;;;;;;11.02;58.73;99712.22;1769772;79;21452;-75
2021/05/03 06:03:05;;;;;;;2.97;1.10;;;;;;;11.09;59.39;99707.06;1778008;79;21856;-75
2021/05/03 06:05:34;;;;;;;2.20;0.80;;;;;;;11.19;59.08;99704.33;1784641;78;21404;-75
2021/05/03 06:08:04;;;;;;;1.10;0.80;;;;;;;11.29;59.67;99708.24;1778524;79;21832;-75
2021/05/03 06:10:33;;;;;;;2.17;1.00;;;;;;;11.40;58.20;99704.37;1785961;79;21875;-76
2021/05/03 06:13:01;;;;;;;5.33;1.57;;;;;;;11.45;57.69;99725.73;1794644;79;21866;-75
2021/05/03 06:15:28;;;;;;;1.53;0.90;;;;;;;11.46;57.27;99738.01;1786764;79;21376;-76
2021/05/03 06:17:57;;;;;;;4.90;0.90;;;;;;;11.45;57.31;99715.03;1791006;79;21402;-76
2021/05/03 06:20:26;;;;;;;2.27;0.90;;;;;;;11.49;57.45;99729.97;1791937;78;21349;-75
2021/05/03 06:23:08;;;;;;;1.40;0.80;;;;;;;11.57;57.64;99727.20;1784899;79;21489;-75
2021/05/03 06:25:36;;;;;;;1.90;0.90;;;;;;;11.64;56.86;99718.30;1791285;79;21361;-75
2021/05/03 06:28:05;;;;;;;1.97;0.93;;;;;;;11.67;56.29;99733.23;1786102;79;21376;-75
2021/05/03 06:30:33;;;;;;;2.70;0.90;;;;;;;11.69;55.96;99754.38;1781297;79;21568;-76
2021/05/03 06:33:01;;;;;;;1.20;0.80;;;;;;;11.71;55.96;99740.16;1785713;79;21405;-76
2021/05/03 06:35:30;;;;;;;1.73;0.70;;;;;;;11.71;55.92;99768.24;1782982;78;21277;-76
2021/05/03 06:37:58;;;;;;;0.93;0.77;;;;;;;11.74;55.74;99748.95;1791034;78;21403;-77
2021/05/03 06:40:26;;;;;;;1.50;0.70;;;;;;;11.80;56.31;99747.02;1816185;78;21425;-76
2021/05/03 06:42:55;;;;;;;1.93;0.90;;;;;;;11.91;56.67;99743.17;1781810;80;21838;-75
2021/05/03 06:45:25;;;;;;;2.47;0.97;;;;;;;12.00;55.54;99748.70;1763467;79;21434;-76
2021/05/03 06:47:53;;;;;;;1.27;0.83;;;;;;;12.02;54.72;99737.97;1781280;78;21413;-75
2021/05/03 06:50:21;;;;;;;2.63;1.27;;;;;;;12.07;55.53;99729.07;1792635;79;21400;-74
2021/05/03 06:52:50;;;;;;;1.70;0.80;;;;;;;12.21;55.34;99732.66;1775706;79;21532;-74
2021/05/03 06:55:20;;;;;;;2.27;1.00;;;;;;;12.30;53.78;99759.57;1808440;77;22236;-75
2021/05/03 06:57:48;;;;;;;2.33;1.10;;;;;;;12.28;53.88;99779.95;1785226;78;21692;-76
2021/05/03 07:00:16;;;;;;;4.60;0.80;;;;;;;12.18;54.00;99775.52;1777133;78;21463;-74
2021/05/03 07:02:45;;;;;;;2.33;0.90;;;;;;;12.14;54.59;99762.97;1806543;79;21777;-74
2021/05/03 07:05:13;;;;;;;1.37;0.77;;;;;;;12.17;55.09;99806.06;1785780;80;21816;-76
2021/05/03 07:07:42;;;;;;;2.80;1.00;;;;;;;12.25;54.95;99818.01;1783649;79;21303;-75
2021/05/03 07:10:12;;;;;;;2.33;1.00;;;;;;;12.31;54.40;99778.05;1778415;79;22404;-76
2021/05/03 07:12:48;;;;;;;1.60;0.83;;;;;;;12.30;54.33;99797.84;1776914;80;22158;-75
2021/05/03 07:15:17;;;;;;;2.63;0.93;;;;;;;12.21;54.14;99803.61;1777310;80;21379;-75
2021/05/03 07:17:47;;;;;;;3.63;1.00;;;;;;;12.04;54.00;99817.42;1773315;80;21778;-74
2021/05/03 07:20:17;;;;;;;2.63;0.93;;;;;;;11.92;54.74;99797.77;1777586;80;21427;-74
2021/05/03 07:22:45;;;;;;;1.97;1.07;;;;;;;11.84;55.25;99803.72;1785750;80;21267;-75
2021/05/03 07:25:13;;;;;;;3.90;1.00;;;;;;;11.76;55.46;99790.15;1768853;79;21451;-75
2021/05/03 07:27:41;;;;;;;3.80;1.07;;;;;;;11.74;56.06;99811.81;1762840;79;21404;-75
2021/05/03 07:30:11;;;;;;;1.70;1.00;;;;;;;11.77;56.40;99785.84;1780720;79;21320;-76
2021/05/03 07:32:40;;;;;;;2.30;1.23;;;;;;;11.82;56.36;99811.77;1785666;79;22081;-75
2021/05/03 07:35:11;;;;;;;2.83;1.40;;;;;;;11.85;56.15;99797.85;1764529;79;21512;-76
2021/05/03 07:37:39;;;;;;;2.92;0.90;;;;;;;11.84;55.57;99824.30;1777474;80;26817;-76
2021/05/03 07:40:08;;;;;;;3.77;0.90;;;;;;;11.78;55.12;99876.26;1765672;79;22491;-76
2021/05/03 07:42:36;;;;;;;2.97;1.03;;;;;;;11.58;55.33;99818.39;1779885;80;21894;-76
2021/05/03 07:45:08;;;;;;;2.43;1.00;;;;;;;11.33;55.66;99835.47;1781526;79;21388;-75
2021/05/03 07:47:36;;;;;;;3.10;1.30;;;;;;;11.17;55.60;99796.02;1774109;79;21936;-74
2021/05/03 07:50:07;;;;;;;3.47;1.17;;;;;;;11.08;56.22;99836.43;1771641;80;21464;-75
2021/05/03 07:52:35;;;;;;;3.07;1.17;;;;;;;11.04;56.62;99824.17;1769798;80;21411;-76
2021/05/03 07:55:05;;;;;;;3.53;1.13;;;;;;;11.09;56.51;99824.66;1775523;80;21375;-75
2021/05/03 07:57:33;;;;;;;3.60;1.87;;;;;;;11.17;56.85;99827.55;1779111;79;21502;-75
2021/05/03 08:00:01;;;;;;;4.00;1.60;;;;;;;11.25;56.89;99826.97;1778532;79;21450;-75
2021/05/03 08:02:29;;;;;;;5.70;3.10;;;;;;;11.36;56.98;99825.55;1774998;80;22244;-75
2021/05/03 08:04:57;;;;;;;2.17;1.13;;;;;;;11.45;56.12;99834.03;1761977;80;21417;-74
2021/05/03 08:07:26;;;;;;;4.13;1.27;;;;;;;11.54;55.67;99850.25;1780384;80;21430;-76
2021/05/03 08:09:54;;;;;;;2.63;1.30;;;;;;;11.56;55.81;99853.45;1781643;79;21447;-74
2021/05/03 08:12:22;;;;;;;3.13;1.37;;;;;;;11.60;56.25;99826.94;1778653;80;21458;-78
2021/05/03 08:14:53;;;;;;;1.97;1.00;;;;;;;11.68;56.41;99833.83;1778000;79;21456;-74
2021/05/03 08:17:48;;;;;;;3.37;1.10;;;;;;;11.80;56.18;99846.81;1791474;77;27981;-75
2021/05/03 08:20:18;;;;;;;4.07;1.00;;;;;;;11.87;55.90;99840.62;1781571;78;21184;-77
2021/05/03 08:22:46;;;;;;;3.03;1.00;;;;;;;11.94;55.98;99843.78;1786730;78;21425;-75
2021/05/03 08:25:14;;;;;;;1.77;0.90;;;;;;;11.94;56.24;99848.31;1775874;78;21439;-74
2021/05/03 08:27:42;;;;;;;3.10;1.43;;;;;;;12.00;56.09;99855.21;1771365;80;22411;-75
2021/05/03 08:30:11;;;;;;;2.67;1.40;;;;;;;12.07;54.32;99849.52;1784220;79;21432;-75
2021/05/03 08:32:41;;;;;;;1.43;0.97;;;;;;;12.03;54.59;99846.61;1748618;80;21356;-74
2021/05/03 08:35:10;;;;;;;8.50;4.77;;;;;;;12.08;54.71;99859.17;1784191;80;22401;-75
2021/05/03 08:37:37;;;;;;;4.10;1.60;;;;;;;12.12;53.71;99854.29;1721684;82;21857;-74
2021/05/03 08:40:07;;;;;;;4.83;1.80;;;;;;;12.06;53.45;99874.70;1719170;81;21486;-77
2021/05/03 08:42:37;;;;;;;7.90;4.58;;;;;;;11.91;53.26;99843.01;1744595;80;21276;-77
2021/05/03 08:45:07;;;;;;;2.70;1.53;;;;;;;11.74;53.03;99865.33;1748395;80;21193;-74
2021/05/03 08:47:38;;;;;;;2.30;1.30;;;;;;;11.65;52.82;99871.05;1715539;81;21806;-74
2021/05/03 08:50:19;;;;;;;2.00;1.20;;;;;;;11.69;53.27;99868.06;1758136;80;21924;-76
2021/05/03 08:52:48;;;;;;;2.33;1.10;;;;;;;11.81;53.20;99895.22;1753282;80;21753;-76
2021/05/03 08:55:16;;;;;;;4.80;1.40;;;;;;;11.87;52.98;99859.34;1718644;81;21954;-74
2021/05/03 08:57:44;;;;;;;2.13;1.30;;;;;;;11.88;52.77;99854.82;1713942;81;21292;-75
2021/05/03 09:00:15;;;;;;;2.73;1.30;;;;;;;11.89;52.97;99855.86;1719695;81;21496;-75
2021/05/03 09:02:45;;;;;;;2.40;1.50;;;;;;;11.99;52.88;99856.84;1733399;81;21457;-75
2021/05/03 09:05:16;;;;;;;2.87;1.40;;;;;;;12.05;52.73;99844.47;1726252;81;21826;-73
2021/05/03 09:07:49;;;;;;;4.90;1.40;;;;;;;12.25;52.24;99866.75;1728825;82;21203;-74
2021/05/03 09:10:18;;;;;;;;;;;;;;;12.36;51.51;99878.38;1719363;81;21627;-75
2021/05/03 09:12:46;;;;;;;4.13;1.50;;;;;;;12.34;50.39;99903.84;1715975;81;21208;-74
2021/05/03 09:15:24;;;;;;;2.57;1.60;;;;;;;12.23;51.36;99863.00;1746861;81;21514;-74
2021/05/03 09:17:52;;;;;;;3.00;1.57;;;;;;;12.24;50.75;99873.98;1710688;83;21421;-75
2021/05/03 09:20:22;;;;;;;2.40;1.40;;;;;;;12.19;50.97;99874.03;1750772;80;21439;-75
2021/05/03 09:22:56;;;;;;;5.43;2.10;;;;;;;12.19;50.12;99877.50;1712506;81;21421;-74
2021/05/03 09:28:20;;;;;;;2.70;1.40;;;;;;;12.25;51.15;99864.86;1818746;76;22733;-75
2021/05/03 09:30:50;;;;;;;2.87;1.50;;;;;;;12.32;50.87;99862.64;1801406;78;21117;-75
2021/05/03 09:33:35;;;;;;;4.70;1.50;;;;;;;12.42;50.66;99858.50;1808116;77;21386;-74
2021/05/03 09:36:06;;;;;;;5.17;1.57;;;;;;;12.42;50.22;99861.17;1807584;78;21237;-75
2021/05/03 09:38:41;;;;;;;4.55;1.67;;;;;;;12.43;50.17;99861.42;1795685;79;21365;-75
2021/05/03 09:41:24;;;;;;;5.37;1.83;;;;;;;12.46;49.20;99841.86;1799627;79;21670;-73
2021/05/03 09:44:07;;;;;;;3.83;1.53;;;;;;;12.34;49.24;99869.86;1801118;77;21345;-75
2021/05/03 09:46:40;;;;;;;3.00;1.50;;;;;;;12.23;49.66;99868.91;1799345;77;21644;-75
2021/05/03 09:49:19;;;;;;;4.45;1.50;;;;;;;12.27;50.29;99865.36;1798287;77;29041;-75
2021/05/03 09:51:56;;;;;;;5.93;2.10;;;;;;;12.39;50.13;99865.77;1794198;77;21635;-74
2021/05/03 09:54:29;;;;;;;3.40;2.03;;;;;;;12.51;49.94;99913.59;1800467;79;21425;-75
2021/05/03 09:57:06;;;;;;;3.73;2.17;;;;;;;12.52;49.04;99893.74;1792205;79;21189;-75
2021/05/03 09:59:41;;;;;;;3.33;2.10;;;;;;;12.49;49.10;99913.06;1778530;80;21641;-76
2021/05/03 10:02:27;;;;;;;5.90;2.33;;;;;;;12.48;48.92;99913.36;1790879;79;21425;-78
2021/05/03 10:05:14;;;;;;;2.80;2.00;;;;;;;12.41;49.32;99921.19;1790142;78;21373;-77
2021/05/03 10:07:50;;;;;;;3.03;2.07;;;;;;;12.52;49.63;99925.89;1792617;79;21966;-76
2021/05/03 10:10:17;;;;;;;3.50;2.02;;;;;;;12.37;49.35;99914.81;1815949;79;21365;-74
2021/05/03 10:12:44;;;;;;;3.43;2.00;;;;;;;12.19;49.67;99924.35;1808992;79;21362;-74
2021/05/03 10:15:14;;;;;;;4.00;1.90;;;;;;;12.09;50.29;99931.69;1807767;79;21314;-74
2021/05/03 10:17:43;;;;;;;2.73;1.73;;;;;;;12.14;50.13;99925.76;1789111;79;21657;-75
2021/05/03 10:20:14;;;;;;;2.53;1.63;;;;;;;12.30;49.99;99906.30;1806576;78;21272;-76
2021/05/03 10:22:43;;;;;;;3.07;1.33;;;;;;;12.47;48.62;99919.27;1799421;78;21346;-75
2021/05/03 10:25:12;;;;;;;3.30;1.47;;;;;;;12.52;47.94;99889.72;1798600;79;21628;-75
2021/05/03 10:27:43;;;;;;;6.97;1.87;;;;;;;12.56;48.49;99915.40;1798346;77;21224;-76
2021/05/03 10:30:21;;;;;;;3.60;1.97;;;;;;;12.63;49.24;99911.83;1809956;79;21405;-75
2021/05/03 10:33:03;;;;;;;2.53;1.50;;;;;;;12.63;48.41;99905.92;1789667;77;21400;-75
2021/05/03 10:35:33;;;;;;;4.67;1.72;;;;;;;12.60;48.13;99913.22;1805476;77;21468;-75
2021/05/03 10:38:02;;;;;;;1.97;1.30;;;;;;;12.57;49.15;99915.64;1807073;78;21364;-75
2021/05/03 10:40:41;;;;;;;3.73;1.40;;;;;;;12.72;48.04;99925.40;1794535;79;21469;-75
2021/05/03 10:43:13;;;;;;;2.43;1.50;;;;;;;12.82;47.26;99937.33;1791435;79;21762;-75
2021/05/03 10:48:58;;;;;;;3.67;1.80;;;;;;;12.98;47.32;99925.34;1810110;79;21384;-74
2021/05/03 10:51:44;;;;;;;4.87;2.43;;;;;;;13.01;46.79;99931.46;1799346;79;21492;-76
2021/05/03 10:54:46;;;;;;;3.40;1.47;;;;;;;12.84;47.83;99928.48;1794631;77;21533;-76
2021/05/03 10:57:29;;;;;;;4.27;1.33;;;;;;;12.81;47.06;99936.54;1801797;79;21367;-74
2021/05/03 10:59:59;;;;;;;2.70;1.50;;;;;;;12.83;47.39;99949.64;1806497;79;21369;-76
2021/05/03 11:02:45;;;;;;;3.20;1.60;;;;;;;12.95;47.38;99953.27;1802209;79;21490;-76
2021/05/03 11:05:26;;;;;;;3.60;1.70;;;;;;;13.01;47.04;99969.55;1805331;79;22097;-74
2021/05/03 11:08:09;;;;;;;3.25;1.62;;;;;;;12.96;46.93;99964.23;1805717;79;21404;-74
2021/05/03 11:11:07;;;;;;;3.63;1.50;;;;;;;12.93;46.60;99936.11;1810655;79;21047;-74
2021/05/03 11:13:46;;;;;;;5.77;1.80;;;;;;;12.87;46.04;99961.41;1792769;77;21345;-77
2021/05/03 11:16:32;;;;;;;3.97;2.03;;;;;;;12.88;46.55;99940.21;1806225;79;21344;-74
2021/05/03 11:19:22;;;;;;;2.77;1.80;;;;;;;12.93;47.30;99935.31;1797266;77;22246;-75
2021/05/03 11:21:50;;;;;;;2.73;1.60;;;;;;;13.01;46.59;99939.50;1795959;79;21321;-74
2021/05/03 11:24:44;;;;;;;5.50;2.00;;;;;;;13.24;46.10;99931.19;1751475;79;21561;-75
2021/05/03 11:29:55;;;;;;;3.03;1.70;;;;;;;13.33;45.85;99930.00;1828753;77;23297;-76
2021/05/03 11:32:32;;;;;;;2.53;1.70;;;;;;;13.20;45.93;99928.80;1785782;79;21151;-75
2021/05/03 11:40:56;;;;;;;3.12;1.60;;;;;;;13.18;45.44;99925.61;1778860;79;21407;-75
2021/05/03 11:46:32;;;;;;;2.60;1.77;;;;;;;13.11;46.52;99943.39;1787558;79;21352;-75
2021/05/03 11:49:14;;;;;;;4.13;1.80;;;;;;;13.12;46.86;99922.73;1787999;79;21437;-74
2021/05/03 11:51:53;;;;;;;3.12;1.52;;;;;;;13.10;46.62;99910.97;1762854;79;21345;-74
2021/05/03 11:57:19;;;;;;;4.73;2.20;;;;;;;13.07;46.66;99922.82;1807713;77;22631;-76
2021/05/03 12:00:01;;;;;;;4.30;1.97;;;;;;;13.02;46.80;99913.48;1784780;78;21184;-78
2021/05/03 12:02:31;;;;;;;3.83;1.70;;;;;;;13.11;47.14;99923.83;1796025;79;22254;-78
2021/05/03 12:04:59;;;;;;;5.70;1.73;;;;;;;13.26;45.71;99915.61;1804266;78;21443;-74
2021/05/03 12:07:30;;;;;;;2.90;1.43;;;;;;;13.27;44.81;99933.29;1774762;80;22001;-74
2021/05/03 12:10:17;;;;;;;3.30;1.50;;;;;;;13.26;44.83;99933.05;1779342;79;21500;-76
2021/05/03 12:12:49;;;;;;;6.23;1.70;;;;;;;13.29;44.97;99910.19;1753883;80;21639;-75
2021/05/03 12:15:28;;;;;;;5.05;1.72;;;;;;;13.39;44.20;99926.13;1766631;80;21452;-74
2021/05/03 12:18:00;;;;;;;7.37;2.00;;;;;;;13.42;43.41;99891.23;1773536;80;21727;-74
2021/05/03 12:20:30;;;;;;;;;;;;;;;13.45;43.82;99916.13;1776799;80;21496;-75
2021/05/03 12:23:04;;;;;;;4.80;1.90;;;;;;;13.49;44.17;99917.13;1764346;80;21151;-77
2021/05/03 12:28:27;;;;;;;5.10;2.00;;;;;;;13.65;43.69;99927.89;1786363;77;22407;-75